Share

Goose Rock, KY (40944)

liford's (KKYBARBO2) Elev 1066 ft | 36.84 °N, 83.85 °W | Change Station

Current weather conditions updated 12 minutes ago

Clear
Clear
56.3 °F
Feels Like 56.3 °F
N
0.0
Wind Variable Wind from East
Sunrise 6:56 AM
Sunset 8:12 PM
Moon Waning Gibbous

Tomorrow is forecast to be nearly the same temperature as today.

Pressure 30.19 in
Visibility 10.0 miles
Clouds Clear
Dew Point 45 °F
Humidity 66%
Rainfall 0.00 in
Snow Depth Not available.
UV 0 out of 16
Pollen 9.90 out of 12
Air Quality Not available.
Flu Activity Sporadic
METAR KLOZ 190153Z AUTO 02003KT 10SM CLR 16/06 A3020 RMK AO2 SLP222 T01560061

More Conditions Fewer Conditions

Pressure 30.19 in
Visibility 10.0 miles
Clouds Clear
Dew Point 45 °F
Humidity 66%
Rainfall 0.00 in
Snow Depth Not available.
UV 0 out of 16
Pollen 9.90 out of 12
Air Quality Not available.
Flu Activity Sporadic
METAR KLOZ 190153Z AUTO 02003KT 10SM CLR 16/06 A3020 RMK AO2 SLP222 T01560061

More Conditions Fewer Conditions

10-Day Weather Forecast

Almanac

Astronomy

Apr. 18, 2014 Rise Set
Actual Time 6:56 AM EDT 8:12 PM EDT
Civil Twilight 6:29 AM EDT 8:39 PM EDT
Nautical Twilight 5:57 AM EDT 9:11 PM EDT
Astronomical Twilight 5:23 AM EDT 9:45 PM EDT
Moon 11:53 PM EDT (4/18) 9:20 AM EDT (4/18)
Length of Visible Light 14h 10m
Length of Day
13h 15m
Tomorrow will be 2m 14s longer.
Waning Gibbous, 84% of the Moon is Illuminated
Today
Waning Gibbous
Apr 22
Last Quarter
Apr 29
New
May 6
First Quarter
May 14
Full

Today's Extremes

State Highs State Lows

Community

  • Sunset Silhouettes
    Sunset Silhouettes
  • FL sunset Perico Isle
    FL sunset Perico Isle
  • Cloudy spring view
    Cloudy spring view
  • Old barn
    Old barn
  • What's for Lunch?
    What's for Lunch?

WunderPhotos

Upload Photos

1,702,594 photos uploaded!

WunderBlogs® & News

Nearby

Snow Depth

Station Depth Elevation
No new snow has been reported.

Coastal Water Temperatures

Place Temperature
No Stations Reporting

Earthquake Activity

City Distance Mag. Time & Date
Englewood, Tennessee 121 miles 2.8 10:34 PM EDT
2014-04-12
Minimum magnitude displayed is 2.5.

Nearby Weather Stations

Station Location Temp. Dew Point Humidity Wind Precip. Elev Updated Type
RAWS PEABODY KY, Big Creek, KY 63 °F 36 °F 37% North  at  0 mph 0.00 in / hr 1464 ft 9:01 PM EDT MADIS
liford's, Barbourville, KY 56.3 °F 45 °F 66% East  at  0.0 mph - / hr 1066 ft 10:09 PM EDT Normal
MSWO, London, KY 54.0 °F 43 °F 66% SSW  at  0.0 mph 0.00 in / hr 1163 ft 10:22 PM EDT Rapid Fire
Mackey Bend, Barbourville, KY 52.9 °F 44 °F 71% NNW  at  1.7 mph - / hr 981 ft 10:21 PM EDT Normal
Napier Mountain, London, KY 60.8 °F 43 °F 52% NE  at  3.8 mph 0.00 in / hr 1312 ft 10:22 PM EDT Rapid Fire

Show More Stations Show Fewer Stations

What do you think?

We're not finished. Please let us know what you like, what you don't like, and what you are still missing.